Ah Gwah Ching, Minnesota
Current Conditions -  °F | °C
As of 8:55 AM on Friday 31 Oct 2014 (Local Time) from KY49 Reporting Station
Clear Clear  
Wind Chill: 23°   Ceiling: Unl
Heat Index: 23°   Visibility: 10mi
Dew Point: 16°   Wind: 3mph
Humidity: 77%   Direction: 340°NNW
Pressure: 30.57"   Gusts: NA
Location:  47.08°N, 94.57°W
Report Text: KY49 311355Z AUTO 34003KT 10SM CLR M05/M09 A3057 RMK AO2 T10521087
Loading
Personal Weather Stations






























Interactive Weather Map
Tropical Storm Tracking
New forecast layout! Learn more

10-Day Weather Forecast

Advertisements
Track Severe Weather on mobile